Time,TemperatureF,DewpointF,PressureIn,WindDirection,WindDirectionDegrees,WindSpeedMPH,WindSpeedGustMPH,Humidity,HourlyPrecipIn,Conditions,Clouds,dailyrainin,SolarRadiationWatts/m^2,SoftwareType,DateUTC
2014-01-17 00:02:00,33.0,4.0,-100.00,South,185,2.0,6.0,29,0.00,,,0.00,0.000000,,2014-01-17 07:02:00,
2014-01-17 00:12:00,33.0,4.0,-100.00,South,185,2.0,6.0,29,0.00,,,0.00,0.000000,,2014-01-17 07:12:00,
2014-01-17 00:21:00,33.0,4.0,-100.00,South,185,2.0,6.0,29,0.00,,,0.00,0.000000,,2014-01-17 07:21:00,
2014-01-17 00:30:00,31.0,5.0,-100.00,NW,311,2.0,6.0,32,0.00,,,0.00,0.000000,,2014-01-17 07:30:00,
2014-01-17 01:11:00,31.0,5.0,-100.00,NW,311,2.0,6.0,32,0.00,,,0.00,0.000000,,2014-01-17 08:11:00,
2014-01-17 01:22:00,31.0,5.0,-100.00,NW,311,2.0,6.0,32,0.00,,,0.00,0.000000,,2014-01-17 08:22:00,
2014-01-17 01:30:00,30.0,6.0,-100.00,West,267,3.0,5.0,35,0.00,,,0.00,0.000000,,2014-01-17 08:30:00,
2014-01-17 01:53:00,30.0,6.0,-100.00,West,267,3.0,5.0,35,0.00,,,0.00,0.000000,,2014-01-17 08:53:00,
2014-01-17 02:02:00,30.0,6.0,-100.00,West,267,3.0,5.0,35,0.00,,,0.00,0.000000,,2014-01-17 09:02:00,
2014-01-17 02:11:00,30.0,6.0,-100.00,West,267,3.0,5.0,35,0.00,,,0.00,0.000000,,2014-01-17 09:11:00,
2014-01-17 02:21:00,30.0,6.0,-100.00,West,267,3.0,5.0,35,0.00,,,0.00,0.000000,,2014-01-17 09:21:00,
2014-01-17 02:30:00,30.0,5.0,-100.00,West,271,2.0,6.0,34,0.00,,,0.00,0.000000,,2014-01-17 09:30:00,
2014-01-17 02:53:00,30.0,5.0,-100.00,West,271,2.0,6.0,34,0.00,,,0.00,0.000000,,2014-01-17 09:53:00,
2014-01-17 03:03:00,30.0,5.0,-100.00,West,271,2.0,6.0,34,0.00,,,0.00,0.000000,,2014-01-17 10:03:00,
2014-01-17 03:12:00,30.0,5.0,-100.00,West,271,2.0,6.0,34,0.00,,,0.00,0.000000,,2014-01-17 10:12:00,
2014-01-17 03:23:00,30.0,5.0,-100.00,West,271,2.0,6.0,34,0.00,,,0.00,0.000000,,2014-01-17 10:23:00,
2014-01-17 03:30:00,29.0,5.0,-100.00,West,268,2.0,4.0,35,0.00,,,0.00,0.000000,,2014-01-17 10:30:00,
2014-01-17 03:52:00,29.0,5.0,-100.00,West,268,2.0,4.0,35,0.00,,,0.00,0.000000,,2014-01-17 10:52:00,
2014-01-17 04:02:00,29.0,5.0,-100.00,West,268,2.0,4.0,35,0.00,,,0.00,0.000000,,2014-01-17 11:02:00,
2014-01-17 04:12:00,29.0,5.0,-100.00,West,268,2.0,4.0,35,0.00,,,0.00,0.000000,,2014-01-17 11:12:00,
2014-01-17 04:22:00,29.0,5.0,-100.00,West,268,2.0,4.0,35,0.00,,,0.00,0.000000,,2014-01-17 11:22:00,
2014-01-17 04:30:00,29.0,5.0,-100.00,SW,235,1.0,4.0,35,0.00,,,0.00,0.000000,,2014-01-17 11:30:00,
2014-01-17 04:53:00,29.0,5.0,-100.00,SW,235,1.0,4.0,35,0.00,,,0.00,0.000000,,2014-01-17 11:53:00,
2014-01-17 05:02:00,29.0,5.0,-100.00,SW,235,1.0,4.0,35,0.00,,,0.00,0.000000,,2014-01-17 12:02:00,
2014-01-17 05:11:00,29.0,5.0,-100.00,SW,235,1.0,4.0,35,0.00,,,0.00,0.000000,,2014-01-17 12:11:00,
2014-01-17 05:21:00,29.0,5.0,-100.00,SW,235,1.0,4.0,35,0.00,,,0.00,0.000000,,2014-01-17 12:21:00,
2014-01-17 06:11:00,30.0,5.0,-100.00,SSW,211,2.0,4.0,34,-99.99,,,0.00,0.000000,,2014-01-17 13:11:00,
2014-01-17 06:30:00,29.0,5.0,-100.00,North,-999,0.0,5.0,35,-99.99,,,0.00,0.000000,,2014-01-17 13:30:00,
2014-01-17 06:52:00,29.0,5.0,-100.00,North,-999,0.0,5.0,35,-99.99,,,0.00,0.000000,,2014-01-17 13:52:00,
2014-01-17 07:02:00,29.0,5.0,-100.00,North,-999,0.0,5.0,35,-99.99,,,0.00,0.000000,,2014-01-17 14:02:00,
2014-01-17 07:11:00,29.0,5.0,-100.00,North,-999,0.0,5.0,35,-99.99,,,0.00,0.000000,,2014-01-17 14:11:00,
2014-01-17 07:21:00,29.0,5.0,-100.00,North,-999,0.0,5.0,35,-99.99,,,0.00,0.000000,,2014-01-17 14:21:00,
2014-01-17 07:52:00,32.0,6.0,-100.00,NNW,338,2.0,6.0,32,-99.99,,,0.00,1.000000,,2014-01-17 14:52:00,
2014-01-17 08:02:00,32.0,6.0,-100.00,NNW,338,2.0,6.0,32,-99.99,,,0.00,1.000000,,2014-01-17 15:02:00,
2014-01-17 11:30:00,46.0,7.0,-100.00,North,352,6.0,14.0,20,-99.99,,,0.00,632.000000,,2014-01-17 18:30:00,
2014-01-17 12:11:00,46.0,7.0,-100.00,North,352,6.0,14.0,20,-99.99,,,0.00,632.000000,,2014-01-17 19:11:00,
2014-01-17 12:22:00,46.0,7.0,-100.00,North,352,6.0,14.0,20,-99.99,,,0.00,632.000000,,2014-01-17 19:22:00,
2014-01-17 12:30:00,49.0,10.0,-100.00,West,279,6.0,16.0,20,0.00,,,0.00,687.000000,,2014-01-17 19:30:00,
2014-01-17 12:52:00,49.0,10.0,-100.00,West,279,6.0,16.0,20,0.00,,,0.00,687.000000,,2014-01-17 19:52:00,
2014-01-17 13:01:00,49.0,10.0,-100.00,West,279,6.0,16.0,20,0.00,,,0.00,687.000000,,2014-01-17 20:01:00,
2014-01-17 13:11:00,49.0,10.0,-100.00,West,279,6.0,16.0,20,0.00,,,0.00,687.000000,,2014-01-17 20:11:00,
2014-01-17 13:21:00,49.0,10.0,-100.00,West,279,6.0,16.0,20,0.00,,,0.00,687.000000,,2014-01-17 20:21:00,
2014-01-17 13:30:00,49.0,11.0,-100.00,West,278,7.0,14.0,21,0.00,,,0.00,672.000000,,2014-01-17 20:30:00,
2014-01-17 13:52:00,49.0,11.0,-100.00,West,278,7.0,14.0,21,0.00,,,0.00,672.000000,,2014-01-17 20:52:00,
2014-01-17 14:02:00,49.0,11.0,-100.00,West,278,7.0,14.0,21,0.00,,,0.00,672.000000,,2014-01-17 21:02:00,
2014-01-17 14:11:00,49.0,11.0,-100.00,West,278,7.0,14.0,21,0.00,,,0.00,672.000000,,2014-01-17 21:11:00,
2014-01-17 14:21:00,49.0,11.0,-100.00,West,278,7.0,14.0,21,0.00,,,0.00,672.000000,,2014-01-17 21:21:00,
2014-01-17 14:30:00,47.0,10.0,-100.00,West,272,9.0,19.0,22,0.00,,,0.00,587.000000,,2014-01-17 21:30:00,
2014-01-17 14:53:00,47.0,10.0,-100.00,West,272,9.0,19.0,22,0.00,,,0.00,587.000000,,2014-01-17 21:53:00,
2014-01-17 15:03:00,47.0,10.0,-100.00,West,272,9.0,19.0,22,0.00,,,0.00,587.000000,,2014-01-17 22:03:00,
2014-01-17 15:13:00,47.0,10.0,-100.00,West,272,9.0,19.0,22,0.00,,,0.00,587.000000,,2014-01-17 22:13:00,
2014-01-17 15:23:00,47.0,10.0,-100.00,West,272,9.0,19.0,22,0.00,,,0.00,587.000000,,2014-01-17 22:23:00,
2014-01-17 15:30:00,47.0,10.0,-100.00,WNW,286,8.0,19.0,22,0.00,,,0.00,439.000000,,2014-01-17 22:30:00,
2014-01-17 15:53:00,47.0,10.0,-100.00,WNW,286,8.0,19.0,22,0.00,,,0.00,439.000000,,2014-01-17 22:53:00,
2014-01-17 16:03:00,47.0,10.0,-100.00,WNW,286,8.0,19.0,22,0.00,,,0.00,439.000000,,2014-01-17 23:03:00,
2014-01-17 16:12:00,47.0,10.0,-100.00,WNW,286,8.0,19.0,22,0.00,,,0.00,439.000000,,2014-01-17 23:12:00,
2014-01-17 16:22:00,47.0,10.0,-100.00,WNW,286,8.0,19.0,22,0.00,,,0.00,439.000000,,2014-01-17 23:22:00,
2014-01-17 16:30:00,44.0,9.0,-100.00,WNW,288,7.0,14.0,23,0.00,,,0.00,196.000000,,2014-01-17 23:30:00,
2014-01-17 16:53:00,44.0,9.0,-100.00,WNW,288,7.0,14.0,23,0.00,,,0.00,196.000000,,2014-01-17 23:53:00,
2014-01-17 17:02:00,44.0,9.0,-100.00,WNW,288,7.0,14.0,23,0.00,,,0.00,196.000000,,2014-01-18 00:02:00,
2014-01-17 17:11:00,44.0,9.0,-100.00,WNW,288,7.0,14.0,23,0.00,,,0.00,196.000000,,2014-01-18 00:11:00,
2014-01-17 17:21:00,44.0,9.0,-100.00,WNW,288,7.0,14.0,23,0.00,,,0.00,196.000000,,2014-01-18 00:21:00,
2014-01-17 17:30:00,39.0,9.0,-100.00,WNW,297,4.0,14.0,28,0.00,,,0.00,14.000000,,2014-01-18 00:30:00,
2014-01-17 17:52:00,39.0,9.0,-100.00,WNW,297,4.0,14.0,28,0.00,,,0.00,14.000000,,2014-01-18 00:52:00,
2014-01-17 18:02:00,39.0,9.0,-100.00,WNW,297,4.0,14.0,28,0.00,,,0.00,14.000000,,2014-01-18 01:02:00,
2014-01-17 18:11:00,39.0,9.0,-100.00,WNW,297,4.0,14.0,28,0.00,,,0.00,14.000000,,2014-01-18 01:11:00,
2014-01-17 18:22:00,39.0,9.0,-100.00,WNW,297,4.0,14.0,28,0.00,,,0.00,14.000000,,2014-01-18 01:22:00,
2014-01-17 18:30:00,36.0,8.0,-100.00,North,350,3.0,9.0,31,0.00,,,0.00,0.000000,,2014-01-18 01:30:00,
2014-01-17 18:52:00,36.0,8.0,-100.00,North,350,3.0,9.0,31,0.00,,,0.00,0.000000,,2014-01-18 01:52:00,
2014-01-17 19:01:00,36.0,8.0,-100.00,North,350,3.0,9.0,31,0.00,,,0.00,0.000000,,2014-01-18 02:01:00,
2014-01-17 19:11:00,36.0,8.0,-100.00,North,350,3.0,9.0,31,0.00,,,0.00,0.000000,,2014-01-18 02:11:00,
2014-01-17 19:22:00,36.0,8.0,-100.00,North,350,3.0,9.0,31,0.00,,,0.00,0.000000,,2014-01-18 02:22:00,
2014-01-17 19:30:00,35.0,8.0,-100.00,NNW,336,2.0,9.0,32,0.00,,,0.00,0.000000,,2014-01-18 02:30:00,
2014-01-17 19:52:00,35.0,8.0,-100.00,NNW,336,2.0,9.0,32,0.00,,,0.00,0.000000,,2014-01-18 02:52:00,
2014-01-17 20:01:00,35.0,8.0,-100.00,NNW,336,2.0,9.0,32,0.00,,,0.00,0.000000,,2014-01-18 03:01:00,
2014-01-17 20:11:00,35.0,8.0,-100.00,NNW,336,2.0,9.0,32,0.00,,,0.00,0.000000,,2014-01-18 03:11:00,
2014-01-17 20:22:00,35.0,8.0,-100.00,NNW,336,2.0,9.0,32,0.00,,,0.00,0.000000,,2014-01-18 03:22:00,
2014-01-17 20:30:00,33.0,9.0,-100.00,NNW,337,3.0,7.0,36,0.00,,,0.00,0.000000,,2014-01-18 03:30:00,
2014-01-17 20:53:00,33.0,9.0,-100.00,NNW,337,3.0,7.0,36,0.00,,,0.00,0.000000,,2014-01-18 03:53:00,
2014-01-17 21:03:00,33.0,9.0,-100.00,NNW,337,3.0,7.0,36,0.00,,,0.00,0.000000,,2014-01-18 04:03:00,
2014-01-17 21:13:00,33.0,9.0,-100.00,NNW,337,3.0,7.0,36,0.00,,,0.00,0.000000,,2014-01-18 04:13:00,
2014-01-17 21:23:00,33.0,9.0,-100.00,NNW,337,3.0,7.0,36,0.00,,,0.00,0.000000,,2014-01-18 04:23:00,
2014-01-17 21:30:00,34.0,9.0,-100.00,NNW,341,5.0,8.0,34,0.00,,,0.00,0.000000,,2014-01-18 04:30:00,
2014-01-17 21:53:00,34.0,9.0,-100.00,NNW,341,5.0,8.0,34,0.00,,,0.00,0.000000,,2014-01-18 04:53:00,
2014-01-17 22:02:00,34.0,9.0,-100.00,NNW,341,5.0,8.0,34,0.00,,,0.00,0.000000,,2014-01-18 05:02:00,
2014-01-17 22:12:00,34.0,9.0,-100.00,NNW,341,5.0,8.0,34,0.00,,,0.00,0.000000,,2014-01-18 05:12:00,
2014-01-17 22:22:00,34.0,9.0,-100.00,NNW,341,5.0,8.0,34,0.00,,,0.00,0.000000,,2014-01-18 05:22:00,
2014-01-17 22:30:00,33.0,6.0,-100.00,NNW,329,2.0,6.0,32,0.00,,,0.00,0.000000,,2014-01-18 05:30:00,
2014-01-17 22:52:00,33.0,6.0,-100.00,NNW,329,2.0,6.0,32,0.00,,,0.00,0.000000,,2014-01-18 05:52:00,
2014-01-17 23:02:00,33.0,6.0,-100.00,NNW,329,2.0,6.0,32,0.00,,,0.00,0.000000,,2014-01-18 06:02:00,
2014-01-17 23:12:00,33.0,6.0,-100.00,NNW,329,2.0,6.0,32,0.00,,,0.00,0.000000,,2014-01-18 06:12:00,
2014-01-17 23:22:00,33.0,6.0,-100.00,NNW,329,2.0,6.0,32,0.00,,,0.00,0.000000,,2014-01-18 06:22:00,
2014-01-17 23:30:00,32.0,7.0,-100.00,NW,326,1.0,10.0,35,0.00,,,0.00,0.000000,,2014-01-18 06:30:00,
2014-01-17 23:52:00,32.0,7.0,-100.00,NW,326,1.0,10.0,35,0.00,,,0.00,0.000000,,2014-01-18 06:52:00,